Latest Weather Observations for Dunalley

IDT60901

Issued at 8:21 am EDT Wednesday 23 October 2019 (issued every 10 minutes, with the page automatically refreshed every 10 minutes)

About weather observations | Map of Hobart area stations | Latest observations for Hobart area | Other Formats
Station Details ID: 094254 Name: DUNALLEY (STROUD POINT) Lat: -42.90 Lon: 147.79 Height: 12.43 m
Data from the previous 72 hours. | See also: Recent months at Dunalley
Date/Time
EDT
Temp
°C
App
Temp
°C
Dew
Point
°C
Rel
Hum
%
Delta-T
°C
Wind Press
QNH
hPa
Press
MSL
hPa
Rain since
9am
mm
Dir  Spd
km/h
Gust
km/h
Spd
kts
Gust
kts
23/08:00am 12.8 12.5 10.0 83 1.4 NNE 2 6 1 3 1017.9 1017.9 0.0
23/07:30am 12.2 10.6 10.1 87 1.1 NNE 9 15 5 8 1017.4 1017.4 0.0
23/07:00am 11.4 10.6 9.5 88 1.0 NNE 4 4 2 2 1017.0 1017.0 0.0
23/06:30am 11.2 11.1 9.5 89 0.9 CALM 0 0 0 0 1016.7 1016.7 0.0
23/06:00am 11.0 10.1 9.4 90 0.8 NNE 4 6 2 3 1016.8 1016.8 0.0
23/05:30am 11.0 10.5 9.4 90 0.8 NNE 2 4 1 2 1016.7 1016.7 0.0
23/05:00am 10.7 10.5 9.0 89 0.8 CALM 0 2 0 1 1016.9 1016.9 0.0
23/04:30am 11.1 11.0 9.4 89 0.9 CALM 0 0 0 0 1017.1 1017.1 0.0
23/04:00am 10.9 10.4 9.2 89 0.8 NNE 2 4 1 2 1017.1 1017.1 0.0
23/03:30am 10.0 8.5 8.3 89 0.8 NNE 6 7 3 4 1017.3 1017.3 0.0
23/03:00am 10.4 8.8 8.7 89 0.8 NNE 7 11 4 6 1018.1 1018.1 0.0
23/02:30am 10.8 10.2 9.1 89 0.8 WSW 2 4 1 2 1018.4 1018.4 0.0
23/02:00am 10.5 8.9 8.8 89 0.8 WSW 7 7 4 4 1019.1 1019.1 0.0
23/01:30am 10.6 9.0 8.7 88 0.9 WSW 7 9 4 5 1019.6 1019.6 0.0
23/01:00am 10.7 9.1 8.6 87 1.0 WSW 7 13 4 7 1020.0 1020.0 0.0
23/12:30am 10.8 9.2 8.6 86 1.1 WSW 7 11 4 6 1020.1 1020.1 0.0
23/12:00am 11.7 9.1 9.4 86 1.2 W 13 17 7 9 1019.9 1019.9 0.0
 
Date/Time
EDT
Temp
°C
App
Temp
°C
Dew
Point
°C
Rel
Hum
%
Delta-T
°C
Wind Press
QNH
hPa
Press
MSL
hPa
Rain since
9am
mm
Dir  Spd
km/h
Gust
km/h
Spd
kts
Gust
kts
22/11:30pm 11.5 10.6 9.1 85 1.2 N 4 7 2 4 1019.8 1019.8 0.0
22/11:00pm 11.6 10.6 9.0 84 1.3 N 4 7 2 4 1020.3 1020.3 0.0
22/10:30pm 11.9 10.0 9.1 83 1.4 N 9 11 5 6 1020.3 1020.3 0.0
22/10:00pm 12.2 11.3 9.4 83 1.4 N 4 6 2 3 1020.6 1020.6 0.0
22/09:30pm 12.1 10.3 9.3 83 1.4 NNE 9 11 5 6 1020.5 1020.5 0.0
22/09:00pm 12.4 10.2 9.4 82 1.5 NE 11 15 6 8 1020.7 1020.7 0.0
22/08:30pm 13.0 9.1 9.6 80 1.7 NE 20 24 11 13 1020.4 1020.4 0.0
22/08:00pm 13.1 9.4 9.4 78 1.9 ENE 19 24 10 13 1020.6 1020.6 0.0
22/07:30pm 13.4 8.7 9.3 76 2.1 ENE 24 30 13 16 1020.1 1020.1 0.0
22/07:00pm 13.8 9.1 9.3 74 2.3 ENE 24 30 13 16 1020.2 1020.2 0.0
22/06:30pm 14.4 9.7 9.2 71 2.7 ENE 24 32 13 17 1020.0 1020.0 0.0
22/06:00pm 14.6 8.3 8.8 68 2.9 NE 32 43 17 23 1019.6 1019.6 0.0
22/05:30pm 14.9 8.4 8.8 67 3.1 ENE 33 41 18 22 1019.7 1019.7 0.0
22/05:00pm 14.9 7.5 8.2 64 3.4 NE 37 46 20 25 1019.6 1019.6 0.0
22/04:30pm 15.0 7.4 7.5 61 3.7 NE 37 46 20 25 1020.0 1020.0 0.0
22/04:00pm 15.1 7.3 6.7 57 4.1 NE 37 44 20 24 1020.6 1020.6 0.0
22/03:30pm 15.3 9.5 7.8 61 3.7 ENE 28 35 15 19 1021.2 1021.2 0.0
22/03:00pm 15.7 10.6 7.5 58 4.1 ENE 24 35 13 19 1021.6 1021.6 0.0
22/02:30pm 15.8 10.6 7.3 57 4.2 NE 24 32 13 17 1022.2 1022.2 0.0
22/02:00pm 15.3 9.2 6.6 56 4.2 NE 28 35 15 19 1022.4 1022.4 0.0
22/01:30pm 16.2 10.5 6.9 54 4.6 NE 26 28 14 15 1022.5 1022.5 0.0
22/01:00pm 15.9 10.5 6.3 53 4.6 NE 24 30 13 16 1022.8 1022.8 0.0
22/12:30pm 15.9 12.6 6.6 54 4.5 ENE 13 19 7 10 1023.1 1023.1 0.0
22/12:00pm 14.2 12.1 5.8 57 4.0 SSE 6 7 3 4 1023.5 1023.5 0.0
22/11:30am 14.2 12.0 6.3 59 3.8 SSE 7 9 4 5 1024.2 1024.2 0.0
22/11:00am 13.7 11.1 6.3 61 3.5 S 9 11 5 6 1024.3 1024.3 0.0
22/10:30am 12.9 10.6 5.6 61 3.4 SW 7 7 4 4 1024.6 1024.6 0.0
22/10:00am 12.8 10.5 5.9 63 3.2 WSW 7 9 4 5 1024.9 1024.9 0.0
22/09:30am 12.5 9.9 5.9 64 3.1 W 9 13 5 7 1025.1 1025.1 0.0
22/09:00am 11.7 8.5 5.3 65 2.9 W 11 15 6 8 1025.1 1025.1 0.0
22/08:30am 12.6 9.6 6.0 64 3.1 WNW 11 15 6 8 1025.1 1025.1 0.0
22/08:00am 11.2 7.7 5.3 67 2.7 WNW 13 15 7 8 1024.7 1024.7 0.0
22/07:30am 10.4 6.8 5.2 70 2.4 WNW 13 17 7 9 1024.5 1024.5 0.0
22/07:00am 9.4 6.1 4.8 73 2.0 WNW 11 13 6 7 1024.2 1024.2 0.0
22/06:30am 8.9 5.2 4.3 73 2.0 NW 13 15 7 8 1024.0 1024.0 0.0
22/06:00am 8.8 4.7 4.4 74 1.9 WNW 15 17 8 9 1023.6 1023.6 0.0
22/05:30am 8.7 5.0 4.5 75 1.9 WNW 13 15 7 8 1023.4 1023.4 0.0
22/05:00am 8.7 5.4 4.5 75 1.8 WNW 11 15 6 8 1023.2 1023.2 0.0
22/04:30am 8.7 5.0 4.3 74 1.9 WNW 13 15 7 8 1023.1 1023.1 0.0
22/04:00am 8.7 5.0 4.3 74 1.9 WNW 13 15 7 8 1022.9 1022.9 0.0
22/03:30am 9.3 5.7 4.9 74 2.0 NW 13 15 7 8 1022.9 1022.9 0.0
22/03:00am 9.2 5.6 5.0 75 1.9 WNW 13 15 7 8 1023.0 1023.0 0.0
22/02:30am 11.0 6.9 6.2 72 2.2 WSW 17 24 9 13 1023.0 1023.0 0.0
22/02:00am 9.7 6.5 6.8 82 1.4 WSW 13 19 7 10 1023.2 1023.2 0.0
22/01:30am 9.2 7.2 7.0 86 1.0 WSW 7 11 4 6 1023.2 1023.2 0.0
22/01:00am 9.7 7.9 8.0 89 0.8 W 7 11 4 6 1023.3 1023.3 0.0
22/12:30am 9.7 7.1 7.8 88 0.9 W 11 13 6 7 1023.2 1023.2 0.0
22/12:00am 9.7 8.1 7.8 88 0.9 NNE 6 7 3 4 1023.2 1023.2 0.0
 
Date/Time
EDT
Temp
°C
App
Temp
°C
Dew
Point
°C
Rel
Hum
%
Delta-T
°C
Wind Press
QNH
hPa
Press
MSL
hPa
Rain since
9am
mm
Dir  Spd
km/h
Gust
km/h
Spd
kts
Gust
kts
21/11:30pm 9.9 9.4 7.8 87 1.0 CALM 0 4 0 2 1023.2 1023.2 0.0
21/11:00pm 10.3 9.1 8.2 87 1.0 NNE 4 4 2 2 1022.9 1022.9 0.0
21/10:30pm 10.7 10.0 8.5 86 1.1 NNE 2 4 1 2 1022.9 1022.9 0.0
21/10:00pm 10.3 8.6 7.7 84 1.2 NNE 6 7 3 4 1022.8 1022.8 0.0
21/09:30pm 11.3 8.8 8.3 82 1.5 NE 11 15 6 8 1022.8 1022.8 0.0
21/09:00pm 11.9 8.8 8.9 82 1.5 NE 15 19 8 10 1022.6 1022.6 0.0
21/08:30pm 11.9 8.4 8.6 80 1.6 NE 17 20 9 11 1022.4 1022.4 0.0
21/08:00pm 12.1 8.5 8.2 77 1.9 NE 17 20 9 11 1022.2 1022.2 0.0
21/07:30pm 12.5 8.2 8.0 74 2.2 NE 20 24 11 13 1021.9 1021.9 0.0
21/07:00pm 13.0 7.6 8.1 72 2.4 NE 26 30 14 16 1021.7 1021.7 0.0
21/06:30pm 13.6 7.9 8.4 71 2.6 NE 28 33 15 18 1021.3 1021.3 0.0
21/06:00pm 14.1 8.1 8.7 70 2.7 NE 30 35 16 19 1021.1 1021.1 0.0
21/05:30pm 14.3 8.6 8.5 68 2.9 NE 28 35 15 19 1020.9 1020.9 0.0
21/05:00pm 14.4 8.0 8.4 67 3.0 NE 32 37 17 20 1020.8 1020.8 0.0
21/04:30pm 15.0 8.4 8.5 65 3.3 NE 33 41 18 22 1020.7 1020.7 0.0
21/04:00pm 15.3 8.8 8.3 63 3.5 NE 32 39 17 21 1020.7 1020.7 0.0
21/03:30pm 15.8 9.3 8.1 60 3.9 NE 32 37 17 20 1020.8 1020.8 0.0
21/03:00pm 16.1 9.6 8.1 59 4.0 NE 32 37 17 20 1020.9 1020.9 0.0
21/02:30pm 16.6 10.6 8.6 59 4.1 NE 30 35 16 19 1021.0 1021.0 0.0
21/02:00pm 17.0 11.3 8.4 57 4.4 NE 28 35 15 19 1021.1 1021.1 0.0
21/01:55pm 17.1 11.4 8.5 57 4.4 NE 28 35 15 19 1021.1 1021.1 0.0
21/01:30pm 18.4 15.2 4.9 41 6.5 SSW 11 15 6 8 1021.2 1021.2 0.0
21/01:00pm 18.4 14.7 6.3 45 6.0 SSW 15 17 8 9 1021.1 1021.1 0.0
21/12:30pm 17.2 14.3 8.1 55 4.6 SW 13 17 7 9 1021.4 1021.4 0.0
21/12:00pm 17.0 13.5 7.4 53 4.8 SW 15 17 8 9 1021.7 1021.7 0.0
21/11:30am 16.4 13.1 7.9 57 4.3 SW 15 17 8 9 1021.9 1021.9 0.0
21/11:00am 15.9 12.4 7.4 57 4.2 SW 15 17 8 9 1022.0 1022.0 0.0
21/10:30am 15.0 11.9 7.1 59 3.9 SW 13 15 7 8 1022.2 1022.2 0.0
21/10:00am 15.2 11.2 6.5 56 4.2 WSW 17 19 9 10 1022.1 1022.1 0.0
21/09:30am 14.8 10.2 5.6 54 4.4 WSW 19 24 10 13 1022.1 1022.1 0.0
21/09:00am 14.3 8.9 4.6 52 4.5 W 22 28 12 15 1021.9 1021.9 0.0
21/08:30am 13.5 8.5 4.6 55 4.1 WNW 20 30 11 16 1021.8 1021.8 0.0
21/08:00am 12.8 8.4 4.8 58 3.7 WNW 17 22 9 12 1021.6 1021.6 0.0
21/07:30am 12.0 7.6 4.5 60 3.4 WNW 17 22 9 12 1021.3 1021.3 0.0
21/07:00am 10.9 7.5 4.1 63 3.0 WNW 11 15 6 8 1021.1 1021.1 0.0
21/06:30am 10.3 7.3 4.2 66 2.7 NW 9 15 5 8 1020.7 1020.7 0.0
21/06:00am 10.2 7.3 4.4 67 2.6 NW 9 15 5 8 1020.4 1020.4 0.0
21/05:30am 9.7 6.7 4.1 68 2.5 W 9 13 5 7 1020.1 1020.1 0.0
21/05:00am 10.4 6.0 5.0 69 2.4 W 17 24 9 13 1019.9 1019.9 0.0
21/04:30am 10.4 6.8 4.8 68 2.5 W 13 17 7 9 1019.7 1019.7 0.0
21/04:00am 10.9 6.5 4.8 66 2.8 W 17 24 9 13 1019.5 1019.5 0.0
21/03:30am 11.2 6.4 4.7 64 2.9 W 19 26 10 14 1019.3 1019.3 0.0
21/03:00am 11.5 5.0 4.7 63 3.1 WNW 28 37 15 20 1019.3 1019.3 0.0
21/02:30am 11.6 4.7 4.6 62 3.2 W 30 41 16 22 1019.0 1019.0 0.0
21/02:00am 11.6 5.1 4.8 63 3.1 WNW 28 37 15 20 1019.1 1019.1 0.0
21/01:30am 11.7 6.4 5.1 64 3.0 WNW 22 33 12 18 1019.4 1019.4 0.0
21/01:00am 11.4 6.5 5.1 65 2.9 WNW 20 26 11 14 1019.4 1019.4 0.0
21/12:30am 11.4 6.5 5.3 66 2.8 WNW 20 28 11 15 1019.4 1019.4 0.0
21/12:00am 11.5 6.7 5.8 68 2.6 W 20 26 11 14 1019.5 1019.5 0.0
 
Date/Time
EDT
Temp
°C
App
Temp
°C
Dew
Point
°C
Rel
Hum
%
Delta-T
°C
Wind Press
QNH
hPa
Press
MSL
hPa
Rain since
9am
mm
Dir  Spd
km/h
Gust
km/h
Spd
kts
Gust
kts
20/11:30pm 11.5 6.9 5.4 66 2.8 WNW 19 24 10 13 1019.3 1019.3 0.0
20/11:20pm 11.5 6.9 5.4 66 2.8 WNW 19 28 10 15 1019.3 1019.3 0.0
20/11:00pm 12.8 4.7 7.0 68 2.8 WSW 39 46 21 25 1019.2 1019.2 0.0
20/10:30pm 13.2 4.2 6.3 63 3.3 WSW 43 54 23 29 1018.6 1018.6 0.0
20/10:00pm 13.3 5.3 7.3 67 2.9 WSW 39 50 21 27 1018.6 1018.6 0.0
20/09:30pm 13.4 6.1 7.0 65 3.1 WSW 35 43 19 23 1018.4 1018.4 0.0
20/09:00pm 13.6 6.7 7.4 66 3.0 WSW 33 44 18 24 1017.9 1017.9 0.0
20/08:30pm 13.7 5.9 8.1 69 2.8 WSW 39 48 21 26 1017.0 1017.0 0.0
20/08:00pm 13.8 5.6 8.4 70 2.7 WSW 41 52 22 28 1016.6 1016.6 0.0
20/07:30pm 14.0 5.1 7.8 66 3.1 WSW 44 54 24 29 1016.0 1016.0 0.0
20/07:00pm 14.4 5.6 8.1 66 3.1 WSW 44 54 24 29 1015.4 1015.4 0.0
20/06:30pm 14.6 5.0 7.9 64 3.3 WSW 48 56 26 30 1015.1 1015.1 0.0
20/06:00pm 14.9 7.0 7.7 62 3.6 WSW 39 50 21 27 1015.0 1015.0 0.0
20/05:30pm 15.0 6.7 7.8 62 3.6 WSW 41 48 22 26 1014.8 1014.8 0.0
20/05:00pm 15.2 7.0 8.2 63 3.5 WSW 41 50 22 27 1014.3 1014.3 0.0
20/04:30pm 15.9 7.6 7.9 59 4.0 W 41 50 22 27 1013.9 1013.9 0.0
20/04:00pm 16.5 9.5 8.5 59 4.1 WSW 35 41 19 22 1013.5 1013.5 0.0
20/03:30pm 16.5 10.5 8.7 60 4.0 WSW 30 37 16 20 1013.1 1013.1 0.0
20/03:00pm 16.3 9.7 8.5 60 4.0 WSW 33 43 18 23 1012.7 1012.7 0.0
20/02:30pm 16.4 7.9 8.4 59 4.1 WSW 43 52 23 28 1012.3 1012.3 0.0
20/02:00pm 16.4 6.8 7.9 57 4.3 WSW 48 56 26 30 1012.0 1012.0 0.0
20/01:30pm 16.2 7.4 8.2 59 4.1 WSW 44 54 24 29 1011.7 1011.7 0.0
20/01:00pm 15.4 6.4 7.4 59 4.0 WSW 44 52 24 28 1011.8 1011.8 0.0
20/12:30pm 15.4 6.4 7.2 58 4.0 WSW 44 57 24 31 1011.6 1011.6 0.0
20/12:00pm 14.7 6.4 7.7 63 3.5 WSW 41 54 22 29 1011.5 1011.5 0.0
20/11:30am 14.7 6.6 7.0 60 3.8 W 39 46 21 25 1011.4 1011.4 0.0
20/11:00am 14.7 7.0 7.3 61 3.6 WSW 37 44 20 24 1011.4 1011.4 0.0
20/10:30am 14.0 5.5 6.8 62 3.5 WSW 41 52 22 28 1011.1 1011.1 0.0
20/10:15am 13.8 6.5 7.1 64 3.3 WSW 35 48 19 26 1011.0 1011.0 0.0
20/10:00am 13.5 7.8 6.8 64 3.2 WSW 26 30 14 16 1011.0 1011.0 0.0
20/09:30am 13.4 8.1 6.7 64 3.2 WSW 24 26 13 14 1010.5 1010.5 0.0
20/09:00am 13.3 7.7 5.5 59 3.7 W 24 32 13 17 1009.9 1009.9 0.0
20/08:30am 12.8 6.8 5.2 60 3.5 WNW 26 35 14 19 1009.6 1009.6 0.0

Latest Capital City Observations: Canberra | Sydney | Melbourne | Brisbane | Adelaide | Perth | Hobart | Darwin

Other formats

Comma delimited format used in spreadsheet applications
http://www.bom.gov.au/fwo/IDT60901/IDT60901.94951.axf

JavaScript Object Notation format (JSON) in row-major order
http://www.bom.gov.au/fwo/IDT60901/IDT60901.94951.json

Data quality

Most of these data are generated automatically and are frequently updated. Quality checks on data are not normally performed. It is possible for incorrect values to appear. Refer to information at About Latest Weather Observations and please check the disclaimer before using these data.